Flight Track Log - Related Links

Times and Time Zones

All times are in EDT time to prevent confusion due to time zone crossing. See the N802CT flight status page for this flight to view local times or setup timezone preferences in your user account.

Time Position Orientation Groundspeed Altitude Reporting Facility
EDT Latitude Longitude Course Direction KTS MPH feet Rate Location/Type
Mon 02:58:13 PM 40.4547 -88.8325 105° East 97 112 3,600  Level Chicago Center
Mon 02:59:15 PM 40.4428 -88.7906 111° Southeast 109 125 3,600  Level Chicago Center
Mon 03:00:17 PM 40.4300 -88.7528 114° Southeast 113 130 3,600  Level Chicago Center
Mon 03:01:20 PM 40.4161 -88.7128 115° Southeast 117 135 3,600  Level Chicago Center
Mon 03:02:00 PM 40.4287 -88.6796 105° East  Level Estimated
Mon 03:02:22 PM 40.4058 -88.6722 108° East 117 135 3,600  Level Chicago Center
Mon 03:03:00 PM 40.4206 -88.6402 105° East  Level Estimated
Mon 03:03:24 PM 40.4028 -88.6275 95° East 119 137 3,600  Level Chicago Center
Mon 03:04:26 PM 40.4042 -88.5733 88° East 121 139 3,500 -97 Descending Chicago Center
Mon 03:05:28 PM 40.4044 -88.5286 90° East 123 142 3,400 -97 Descending Chicago Center
Mon 03:06:30 PM 40.4006 -88.4844 97° East 123 142 3,300 -48 Descending Chicago Center
Mon 03:07:32 PM 40.3914 -88.4425 106° East 121 139 3,300 -48 Level Chicago Center
Mon 03:08:34 PM 40.3828 -88.3986 104° East 122 140 3,200 -48 Descending Chicago Center
Mon 03:09:36 PM 40.3736 -88.3561 106° East 122 140 3,200  Level Chicago Center
Mon 03:11:00 PM 40.3604 -88.3018 108° East  Level FlightAware Approximate
Mon 03:18:00 PM 40.2942 -88.0303 108° East  Level FlightAware Approximate
Mon 03:19:00 PM 40.2847 -87.9915 108° East  Level FlightAware Approximate
Mon 03:20:00 PM 40.2752 -87.9528 108° East  Level FlightAware Approximate
Mon 03:21:00 PM 40.2657 -87.9141 108° East  Level FlightAware Approximate
Mon 03:22:00 PM 40.2561 -87.8754 108° East  Level FlightAware Approximate
Mon 03:23:00 PM 40.2465 -87.8367 108° East  Level FlightAware Approximate
Mon 03:24:00 PM 40.2370 -87.7980 108° East  Level FlightAware Approximate
Mon 03:25:00 PM 40.2272 -87.7589 108° East  Level FlightAware Approximate
Mon 03:26:00 PM 40.2176 -87.7203 108° East  Level FlightAware Approximate
Mon 03:27:00 PM 40.2079 -87.6816 108° East  Level FlightAware Approximate
Mon 03:28:00 PM 40.1983 -87.6430 108° East  Level FlightAware Approximate
Mon 03:29:00 PM 40.1886 -87.6044 108° East  Level FlightAware Approximate
Mon 03:30:00 PM 40.1833 -87.5833 108° East  Level FlightAware Approximate

Login

Don't have an account? Register now (free) for customized features, flight alerts, and more!